Weather at CHI St. Luke's Hospital Heliport

Public forecast

Using degrees Fahrenheit for public forecast. Weather courtesy of forecast.io.

Closest aviation weather report (METAR) to CHI St. Luke's Hospital Heliport

Closest report is Sugar Land Regional Airport, 2.2 nm (4.0 km) WNW. Retrieved 2020/09/20 09:53 UTC (46 minutes ago):

KSGR 200953Z AUTO 03009KT 10SM -RA CLR 21/14 A2998 RMK AO2 RAB42 SLP153 P0000 T02110144

Closest aviation forecast (TAF) to CHI St. Luke's Hospital Heliport

Closest forecast is Sugar Land Regional Airport, 2.2 nm (4.0 km) WNW. Retrieved 2020/09/20 06:27 UTC (4 hours ago):

TAF KSGR 200525Z 2006/2106 03011KT P6SM SCT060 FM201200 02013G23KT P6SM BKN050 FM201500 01015G25KT P6SM VCSH BKN015 BKN025 FM210300 04015G25KT 3SM SHRA BR BKN007 OVC015